Bookmark and Share
Track history (hours):
 

Liberty Eagle

More information available from US FCC via Universal Licensing System and Coast Guard Vessel Documentation Center.

Last reported at 2014-Mar-31 09:31 UTC. Time now 2014-Apr-17 07:03 UTC.
Position N 29°26' W 094°50'.
Warning: this ship's position is 16 days out of date.

Type: Cargo ship. MMSI: 369344000.

NotesDate/timePositionNaut miles runAvg speedWind from/ knotsBaromVisibWave heightAir tempDewpointWater temp
2014-Mar-31 09:31N 29°26' W 094°50'1010.5
2014-Mar-31 08:34N 29°35' W 094°56'10 9.8
2014-Mar-31 07:33N 29°44' W 095°01'5 4.7
2014-Mar-31 06:33N 29°44' W 095°07'0 0.0
2014-Mar-31 05:30N 29°44' W 095°07'0 0.0
2014-Mar-31 04:33N 29°44' W 095°07'0 0.0
2014-Mar-31 03:33N 29°44' W 095°07'0 0.0
2014-Mar-31 02:33N 29°44' W 095°07'0 0.0
2014-Mar-31 01:33N 29°44' W 095°07'0 0.0
2014-Mar-31 00:33N 29°44' W 095°07'0 0.0
2014-Mar-30 23:33N 29°44' W 095°07'0 0.0
2014-Mar-30 22:33N 29°44' W 095°07'0 0.0
2014-Mar-30 21:33N 29°44' W 095°07'0 0.0
2014-Mar-30 20:33N 29°44' W 095°07'0 0.0
2014-Mar-30 19:33N 29°44' W 095°07'0 0.0
2014-Mar-30 18:33N 29°44' W 095°07'0 0.0
2014-Mar-30 17:33N 29°44' W 095°07'0 0.0
2014-Mar-30 16:33N 29°44' W 095°07'0 0.0
2014-Mar-30 15:33N 29°44' W 095°07'0 0.0
2014-Mar-30 14:33N 29°44' W 095°07'0 0.0
2014-Mar-30 13:33N 29°44' W 095°07'0 0.0
2014-Mar-30 12:33N 29°44' W 095°07'0 0.0
2014-Mar-30 11:33N 29°44' W 095°07'0 0.0
2014-Mar-30 10:33N 29°44' W 095°07'0 0.0
2014-Mar-30 09:33N 29°44' W 095°07'0 0.0
2014-Mar-30 08:33N 29°44' W 095°07'0 0.0
2014-Mar-30 07:33N 29°44' W 095°07'0 0.0
2014-Mar-30 06:33N 29°44' W 095°07'0 0.0
2014-Mar-30 05:33N 29°44' W 095°07'0 0.0
2014-Mar-30 04:33N 29°44' W 095°07'0 0.0
2014-Mar-30 03:33N 29°44' W 095°07'4 3.8
2014-Mar-30 02:33N 29°45' W 095°11'3 1.4
2014-Mar-30 00:23N 29°43' W 095°14'0 0.0
2014-Mar-29 20:32N 29°43' W 095°14'0 0.0
2014-Mar-29 19:29N 29°43' W 095°14'0 0.0
2014-Mar-29 18:26N 29°43' W 095°14'0 0.0
2014-Mar-29 17:32N 29°43' W 095°14'0 0.0
2014-Mar-28 23:26N 29°43' W 095°14'12 0.5
2014-Mar-27 22:10N 29°42' W 095°01'610.5
2014-Mar-27 21:33N 29°37' W 094°57'1211.5
2014-Mar-27 20:33N 29°27' W 094°51'  

Dump ship's entire track history

sailing weather and tide predictions

Liberty Eagle — WHIA — position and weather